sensor_id;sensor_type;location;lat;lon;timestamp;temperature;humidity
66140;DHT22;52945;51.908;8.364;2023-03-22T00:00:27;12.50;68.70
66140;DHT22;52945;51.908;8.364;2023-03-22T00:03:28;12.50;68.70
66140;DHT22;52945;51.908;8.364;2023-03-22T00:06:28;12.50;68.60
66140;DHT22;52945;51.908;8.364;2023-03-22T00:09:29;12.60;68.70
66140;DHT22;52945;51.908;8.364;2023-03-22T00:12:30;12.60;68.50
66140;DHT22;52945;51.908;8.364;2023-03-22T00:15:31;12.60;68.60
66140;DHT22;52945;51.908;8.364;2023-03-22T00:18:31;12.60;68.30
66140;DHT22;52945;51.908;8.364;2023-03-22T00:21:32;12.60;68.40
66140;DHT22;52945;51.908;8.364;2023-03-22T00:24:33;12.60;68.30
66140;DHT22;52945;51.908;8.364;2023-03-22T00:27:33;12.60;68.30
66140;DHT22;52945;51.908;8.364;2023-03-22T00:30:34;12.60;68.30
66140;DHT22;52945;51.908;8.364;2023-03-22T00:33:35;12.60;68.20
66140;DHT22;52945;51.908;8.364;2023-03-22T00:36:36;12.60;68.30
66140;DHT22;52945;51.908;8.364;2023-03-22T00:39:37;12.70;68.20
66140;DHT22;52945;51.908;8.364;2023-03-22T00:42:39;12.70;68.10
66140;DHT22;52945;51.908;8.364;2023-03-22T00:45:40;12.70;67.90
66140;DHT22;52945;51.908;8.364;2023-03-22T00:48:41;12.70;67.90
66140;DHT22;52945;51.908;8.364;2023-03-22T00:51:41;12.70;67.80
66140;DHT22;52945;51.908;8.364;2023-03-22T00:54:42;12.70;67.90
66140;DHT22;52945;51.908;8.364;2023-03-22T00:57:43;12.70;67.60
66140;DHT22;52945;51.908;8.364;2023-03-22T01:00:43;12.70;67.70
66140;DHT22;52945;51.908;8.364;2023-03-22T01:03:45;12.70;67.80
66140;DHT22;52945;51.908;8.364;2023-03-22T01:06:49;12.70;67.70
66140;DHT22;52945;51.908;8.364;2023-03-22T01:09:50;12.70;67.60
66140;DHT22;52945;51.908;8.364;2023-03-22T01:12:51;12.70;67.70
66140;DHT22;52945;51.908;8.364;2023-03-22T01:15:52;12.70;67.70
66140;DHT22;52945;51.908;8.364;2023-03-22T01:18:53;12.70;67.70
66140;DHT22;52945;51.908;8.364;2023-03-22T01:21:53;12.70;67.60
66140;DHT22;52945;51.908;8.364;2023-03-22T01:24:54;12.70;67.70
66140;DHT22;52945;51.908;8.364;2023-03-22T01:27:54;12.70;67.80
66140;DHT22;52945;51.908;8.364;2023-03-22T01:30:56;12.70;67.90
66140;DHT22;52945;51.908;8.364;2023-03-22T01:33:59;12.70;67.80
66140;DHT22;52945;51.908;8.364;2023-03-22T01:37:00;12.70;67.50
66140;DHT22;52945;51.908;8.364;2023-03-22T01:40:00;12.70;67.70
66140;DHT22;52945;51.908;8.364;2023-03-22T01:43:01;12.70;67.70
66140;DHT22;52945;51.908;8.364;2023-03-22T01:46:02;12.70;67.70
66140;DHT22;52945;51.908;8.364;2023-03-22T01:49:04;12.70;67.90
66140;DHT22;52945;51.908;8.364;2023-03-22T01:52:10;12.70;68.00
66140;DHT22;52945;51.908;8.364;2023-03-22T01:55:12;12.70;67.90
66140;DHT22;52945;51.908;8.364;2023-03-22T01:58:14;12.70;67.90
66140;DHT22;52945;51.908;8.364;2023-03-22T02:01:17;12.70;67.80
66140;DHT22;52945;51.908;8.364;2023-03-22T02:04:19;12.70;68.00
66140;DHT22;52945;51.908;8.364;2023-03-22T02:07:22;12.70;67.80
66140;DHT22;52945;51.908;8.364;2023-03-22T02:10:26;12.80;67.70
66140;DHT22;52945;51.908;8.364;2023-03-22T02:34:04;12.70;67.60
66140;DHT22;52945;51.908;8.364;2023-03-22T02:41:32;12.80;67.80
66140;DHT22;52945;51.908;8.364;2023-03-22T02:44:13;12.80;67.70
66140;DHT22;52945;51.908;8.364;2023-03-22T02:47:22;12.80;67.80
66140;DHT22;52945;51.908;8.364;2023-03-22T02:50:33;12.80;67.80
66140;DHT22;52945;51.908;8.364;2023-03-22T02:53:43;12.80;67.70
66140;DHT22;52945;51.908;8.364;2023-03-22T02:56:57;12.70;67.60
66140;DHT22;52945;51.908;8.364;2023-03-22T02:59:59;12.80;67.70
66140;DHT22;52945;51.908;8.364;2023-03-22T03:03:05;12.70;67.60
66140;DHT22;52945;51.908;8.364;2023-03-22T03:06:13;12.80;67.50
66140;DHT22;52945;51.908;8.364;2023-03-22T03:09:18;12.70;67.60
66140;DHT22;52945;51.908;8.364;2023-03-22T03:12:21;12.70;67.60
66140;DHT22;52945;51.908;8.364;2023-03-22T03:15:22;12.80;67.60
66140;DHT22;52945;51.908;8.364;2023-03-22T03:18:53;12.70;67.60
66140;DHT22;52945;51.908;8.364;2023-03-22T03:29:04;12.70;67.90
66140;DHT22;52945;51.908;8.364;2023-03-22T03:32:20;12.70;68.20
66140;DHT22;52945;51.908;8.364;2023-03-22T03:35:34;12.60;68.30
66140;DHT22;52945;51.908;8.364;2023-03-22T03:38:39;12.60;68.20
66140;DHT22;52945;51.908;8.364;2023-03-22T03:41:43;12.60;68.30
66140;DHT22;52945;51.908;8.364;2023-03-22T03:44:45;12.60;68.40
66140;DHT22;52945;51.908;8.364;2023-03-22T03:47:47;12.50;68.60
66140;DHT22;52945;51.908;8.364;2023-03-22T03:50:56;12.60;68.50
66140;DHT22;52945;51.908;8.364;2023-03-22T03:53:57;12.60;68.70
66140;DHT22;52945;51.908;8.364;2023-03-22T03:56:57;12.60;68.60
66140;DHT22;52945;51.908;8.364;2023-03-22T03:59:58;12.60;68.70
66140;DHT22;52945;51.908;8.364;2023-03-22T04:02:59;12.60;68.90
66140;DHT22;52945;51.908;8.364;2023-03-22T04:05:59;12.60;68.90
66140;DHT22;52945;51.908;8.364;2023-03-22T04:09:00;12.60;68.80
66140;DHT22;52945;51.908;8.364;2023-03-22T04:12:01;12.60;68.90
66140;DHT22;52945;51.908;8.364;2023-03-22T04:15:01;12.70;68.90
66140;DHT22;52945;51.908;8.364;2023-03-22T04:18:02;12.70;68.90
66140;DHT22;52945;51.908;8.364;2023-03-22T04:21:03;12.70;68.90
66140;DHT22;52945;51.908;8.364;2023-03-22T04:24:05;12.70;68.70
66140;DHT22;52945;51.908;8.364;2023-03-22T04:27:06;12.60;68.60
66140;DHT22;52945;51.908;8.364;2023-03-22T04:30:09;12.70;68.60
66140;DHT22;52945;51.908;8.364;2023-03-22T04:33:11;12.70;68.80
66140;DHT22;52945;51.908;8.364;2023-03-22T04:36:12;12.60;69.00
66140;DHT22;52945;51.908;8.364;2023-03-22T04:39:16;12.70;68.90
66140;DHT22;52945;51.908;8.364;2023-03-22T04:42:17;12.70;68.90
66140;DHT22;52945;51.908;8.364;2023-03-22T04:45:18;12.70;68.70
66140;DHT22;52945;51.908;8.364;2023-03-22T04:48:19;12.70;68.60
66140;DHT22;52945;51.908;8.364;2023-03-22T04:51:21;12.70;68.60
66140;DHT22;52945;51.908;8.364;2023-03-22T04:54:22;12.70;68.50
66140;DHT22;52945;51.908;8.364;2023-03-22T04:57:22;12.70;68.30
66140;DHT22;52945;51.908;8.364;2023-03-22T05:00:24;12.70;68.40
66140;DHT22;52945;51.908;8.364;2023-03-22T05:03:24;12.70;68.40
66140;DHT22;52945;51.908;8.364;2023-03-22T05:06:25;12.70;68.50
66140;DHT22;52945;51.908;8.364;2023-03-22T05:09:26;12.70;68.50
66140;DHT22;52945;51.908;8.364;2023-03-22T05:12:27;12.70;68.50
66140;DHT22;52945;51.908;8.364;2023-03-22T05:15:27;12.70;68.50
66140;DHT22;52945;51.908;8.364;2023-03-22T05:18:28;12.60;68.50
66140;DHT22;52945;51.908;8.364;2023-03-22T05:21:29;12.60;68.60
66140;DHT22;52945;51.908;8.364;2023-03-22T05:24:36;12.60;68.70
66140;DHT22;52945;51.908;8.364;2023-03-22T05:27:36;12.50;68.80
66140;DHT22;52945;51.908;8.364;2023-03-22T05:30:38;12.40;68.90
66140;DHT22;52945;51.908;8.364;2023-03-22T05:33:39;12.40;68.90
66140;DHT22;52945;51.908;8.364;2023-03-22T05:36:40;12.40;68.80
66140;DHT22;52945;51.908;8.364;2023-03-22T05:39:41;12.30;69.10
66140;DHT22;52945;51.908;8.364;2023-03-22T05:42:43;12.40;69.10
66140;DHT22;52945;51.908;8.364;2023-03-22T05:45:43;12.40;69.00
66140;DHT22;52945;51.908;8.364;2023-03-22T05:48:45;12.30;69.30
66140;DHT22;52945;51.908;8.364;2023-03-22T05:51:45;12.30;69.10
66140;DHT22;52945;51.908;8.364;2023-03-22T05:54:46;12.30;69.20
66140;DHT22;52945;51.908;8.364;2023-03-22T05:57:47;12.20;69.10
66140;DHT22;52945;51.908;8.364;2023-03-22T06:00:50;12.20;69.40
66140;DHT22;52945;51.908;8.364;2023-03-22T06:03:51;12.20;69.30
66140;DHT22;52945;51.908;8.364;2023-03-22T06:06:51;12.20;69.50
66140;DHT22;52945;51.908;8.364;2023-03-22T06:09:53;12.30;69.50
66140;DHT22;52945;51.908;8.364;2023-03-22T06:12:54;12.30;69.60
66140;DHT22;52945;51.908;8.364;2023-03-22T06:15:54;12.30;69.50
66140;DHT22;52945;51.908;8.364;2023-03-22T06:18:58;12.30;69.50
66140;DHT22;52945;51.908;8.364;2023-03-22T06:21:59;12.40;69.50
66140;DHT22;52945;51.908;8.364;2023-03-22T06:25:00;12.40;69.60
66140;DHT22;52945;51.908;8.364;2023-03-22T06:28:01;12.50;69.50
66140;DHT22;52945;51.908;8.364;2023-03-22T06:31:08;12.50;69.10
66140;DHT22;52945;51.908;8.364;2023-03-22T06:34:09;12.60;69.20
66140;DHT22;52945;51.908;8.364;2023-03-22T06:37:10;12.70;68.90
66140;DHT22;52945;51.908;8.364;2023-03-22T06:40:11;12.70;68.90
66140;DHT22;52945;51.908;8.364;2023-03-22T06:43:11;12.80;68.80
66140;DHT22;52945;51.908;8.364;2023-03-22T06:46:12;12.80;68.50
66140;DHT22;52945;51.908;8.364;2023-03-22T06:49:13;12.80;68.20
66140;DHT22;52945;51.908;8.364;2023-03-22T06:52:14;12.90;68.10
66140;DHT22;52945;51.908;8.364;2023-03-22T06:55:14;12.90;67.90
66140;DHT22;52945;51.908;8.364;2023-03-22T06:58:15;12.90;67.80
66140;DHT22;52945;51.908;8.364;2023-03-22T07:01:16;12.90;67.90
66140;DHT22;52945;51.908;8.364;2023-03-22T07:04:17;13.00;67.70
66140;DHT22;52945;51.908;8.364;2023-03-22T07:07:19;13.00;67.80
66140;DHT22;52945;51.908;8.364;2023-03-22T07:10:20;13.00;67.80
66140;DHT22;52945;51.908;8.364;2023-03-22T07:13:20;13.10;67.70
66140;DHT22;52945;51.908;8.364;2023-03-22T07:16:21;13.10;67.60
66140;DHT22;52945;51.908;8.364;2023-03-22T07:19:21;13.10;67.40
66140;DHT22;52945;51.908;8.364;2023-03-22T07:22:22;13.20;67.60
66140;DHT22;52945;51.908;8.364;2023-03-22T07:25:24;13.20;67.40
66140;DHT22;52945;51.908;8.364;2023-03-22T07:28:25;13.30;67.30
66140;DHT22;52945;51.908;8.364;2023-03-22T07:31:26;13.30;67.30
66140;DHT22;52945;51.908;8.364;2023-03-22T07:34:26;13.40;67.20
66140;DHT22;52945;51.908;8.364;2023-03-22T07:37:27;13.30;66.90
66140;DHT22;52945;51.908;8.364;2023-03-22T07:40:28;13.40;67.00
66140;DHT22;52945;51.908;8.364;2023-03-22T07:43:28;13.60;66.90
66140;DHT22;52945;51.908;8.364;2023-03-22T07:46:29;13.60;66.90
66140;DHT22;52945;51.908;8.364;2023-03-22T07:49:30;13.50;66.70
66140;DHT22;52945;51.908;8.364;2023-03-22T07:52:31;13.60;66.50
66140;DHT22;52945;51.908;8.364;2023-03-22T07:55:31;13.60;66.30
66140;DHT22;52945;51.908;8.364;2023-03-22T07:58:32;13.60;66.40
66140;DHT22;52945;51.908;8.364;2023-03-22T08:01:32;13.70;66.10
66140;DHT22;52945;51.908;8.364;2023-03-22T08:04:33;13.60;66.10
66140;DHT22;52945;51.908;8.364;2023-03-22T08:07:34;13.70;66.10
66140;DHT22;52945;51.908;8.364;2023-03-22T08:10:35;13.70;66.00
66140;DHT22;52945;51.908;8.364;2023-03-22T08:13:35;13.70;66.00
66140;DHT22;52945;51.908;8.364;2023-03-22T08:16:37;13.70;65.80
66140;DHT22;52945;51.908;8.364;2023-03-22T08:19:37;13.70;65.60
66140;DHT22;52945;51.908;8.364;2023-03-22T08:22:38;13.90;65.70
66140;DHT22;52945;51.908;8.364;2023-03-22T08:25:39;13.90;65.00
66140;DHT22;52945;51.908;8.364;2023-03-22T08:28:40;14.00;64.90
66140;DHT22;52945;51.908;8.364;2023-03-22T08:31:41;14.10;64.70
66140;DHT22;52945;51.908;8.364;2023-03-22T08:34:42;14.20;64.30
66140;DHT22;52945;51.908;8.364;2023-03-22T08:37:43;14.20;64.20
66140;DHT22;52945;51.908;8.364;2023-03-22T08:40:46;14.20;63.70
66140;DHT22;52945;51.908;8.364;2023-03-22T08:43:47;14.40;63.80
66140;DHT22;52945;51.908;8.364;2023-03-22T08:46:47;14.50;63.40
66140;DHT22;52945;51.908;8.364;2023-03-22T08:49:48;14.70;63.00
66140;DHT22;52945;51.908;8.364;2023-03-22T08:52:49;15.00;61.90
66140;DHT22;52945;51.908;8.364;2023-03-22T08:55:50;15.20;61.20
66140;DHT22;52945;51.908;8.364;2023-03-22T08:58:50;15.30;60.70
66140;DHT22;52945;51.908;8.364;2023-03-22T09:01:51;15.40;60.40
66140;DHT22;52945;51.908;8.364;2023-03-22T09:04:52;15.60;59.50
66140;DHT22;52945;51.908;8.364;2023-03-22T09:07:52;15.70;59.00
66140;DHT22;52945;51.908;8.364;2023-03-22T09:10:53;15.80;58.80
66140;DHT22;52945;51.908;8.364;2023-03-22T09:13:53;15.70;58.30
66140;DHT22;52945;51.908;8.364;2023-03-22T09:16:54;15.80;58.30
66140;DHT22;52945;51.908;8.364;2023-03-22T09:19:55;15.80;58.30
66140;DHT22;52945;51.908;8.364;2023-03-22T09:22:55;15.70;58.30
66140;DHT22;52945;51.908;8.364;2023-03-22T09:25:59;15.70;58.00
66140;DHT22;52945;51.908;8.364;2023-03-22T09:28:59;15.70;57.70
66140;DHT22;52945;51.908;8.364;2023-03-22T09:32:00;15.70;57.90
66140;DHT22;52945;51.908;8.364;2023-03-22T09:35:01;15.80;57.80
66140;DHT22;52945;51.908;8.364;2023-03-22T09:38:01;15.90;57.30
66140;DHT22;52945;51.908;8.364;2023-03-22T09:41:22;15.90;56.10
66140;DHT22;52945;51.908;8.364;2023-03-22T09:47:38;16.10;55.80
66140;DHT22;52945;51.908;8.364;2023-03-22T09:50:47;16.10;55.20
66140;DHT22;52945;51.908;8.364;2023-03-22T09:53:48;16.10;54.40
66140;DHT22;52945;51.908;8.364;2023-03-22T10:06:19;16.10;54.60
66140;DHT22;52945;51.908;8.364;2023-03-22T10:15:49;16.10;54.50
66140;DHT22;52945;51.908;8.364;2023-03-22T10:18:51;16.20;53.80
66140;DHT22;52945;51.908;8.364;2023-03-22T10:21:57;16.40;54.00
66140;DHT22;52945;51.908;8.364;2023-03-22T10:24:59;16.50;52.60
66140;DHT22;52945;51.908;8.364;2023-03-22T10:28:00;16.60;52.50
66140;DHT22;52945;51.908;8.364;2023-03-22T10:31:01;16.70;52.60
66140;DHT22;52945;51.908;8.364;2023-03-22T10:34:06;16.80;51.80
66140;DHT22;52945;51.908;8.364;2023-03-22T10:37:19;16.90;52.20
66140;DHT22;52945;51.908;8.364;2023-03-22T10:40:27;16.90;52.10
66140;DHT22;52945;51.908;8.364;2023-03-22T10:43:36;17.00;51.50
66140;DHT22;52945;51.908;8.364;2023-03-22T10:46:38;16.90;50.90
66140;DHT22;52945;51.908;8.364;2023-03-22T10:49:46;16.80;51.00
66140;DHT22;52945;51.908;8.364;2023-03-22T10:52:55;16.80;51.20
66140;DHT22;52945;51.908;8.364;2023-03-22T10:55:57;16.70;51.50
66140;DHT22;52945;51.908;8.364;2023-03-22T10:58:58;16.70;52.10
66140;DHT22;52945;51.908;8.364;2023-03-22T11:01:59;16.60;52.00
66140;DHT22;52945;51.908;8.364;2023-03-22T11:05:03;16.60;51.60
66140;DHT22;52945;51.908;8.364;2023-03-22T11:08:04;16.70;51.10
66140;DHT22;52945;51.908;8.364;2023-03-22T11:11:13;16.70;51.20
66140;DHT22;52945;51.908;8.364;2023-03-22T11:14:34;16.80;51.30
66140;DHT22;52945;51.908;8.364;2023-03-22T11:17:36;16.90;50.90
66140;DHT22;52945;51.908;8.364;2023-03-22T11:20:51;17.10;51.30
66140;DHT22;52945;51.908;8.364;2023-03-22T11:24:05;17.20;50.70
66140;DHT22;52945;51.908;8.364;2023-03-22T11:33:21;17.30;49.70
66140;DHT22;52945;51.908;8.364;2023-03-22T11:36:25;17.30;49.40
66140;DHT22;52945;51.908;8.364;2023-03-22T11:39:27;17.30;49.00
66140;DHT22;52945;51.908;8.364;2023-03-22T11:42:28;17.30;49.60
66140;DHT22;52945;51.908;8.364;2023-03-22T11:45:35;17.20;49.80
66140;DHT22;52945;51.908;8.364;2023-03-22T11:48:36;17.20;50.40
66140;DHT22;52945;51.908;8.364;2023-03-22T11:51:39;17.20;50.80
66140;DHT22;52945;51.908;8.364;2023-03-22T11:54:41;17.20;51.00
66140;DHT22;52945;51.908;8.364;2023-03-22T11:57:43;17.10;51.00
66140;DHT22;52945;51.908;8.364;2023-03-22T12:00:44;17.10;51.30
66140;DHT22;52945;51.908;8.364;2023-03-22T12:03:53;17.20;51.20
66140;DHT22;52945;51.908;8.364;2023-03-22T12:06:58;17.20;51.30
66140;DHT22;52945;51.908;8.364;2023-03-22T12:10:09;17.20;51.20
66140;DHT22;52945;51.908;8.364;2023-03-22T12:13:18;17.40;50.80
66140;DHT22;52945;51.908;8.364;2023-03-22T12:16:23;17.50;49.40
66140;DHT22;52945;51.908;8.364;2023-03-22T12:22:51;17.70;48.90
66140;DHT22;52945;51.908;8.364;2023-03-22T12:25:54;17.80;48.10
66140;DHT22;52945;51.908;8.364;2023-03-22T12:29:07;17.90;46.70
66140;DHT22;52945;51.908;8.364;2023-03-22T12:32:21;18.00;46.60
66140;DHT22;52945;51.908;8.364;2023-03-22T12:35:24;17.90;46.50
66140;DHT22;52945;51.908;8.364;2023-03-22T12:38:48;17.90;47.20
66140;DHT22;52945;51.908;8.364;2023-03-22T12:41:53;18.00;47.30
66140;DHT22;52945;51.908;8.364;2023-03-22T12:45:02;17.90;47.10
66140;DHT22;52945;51.908;8.364;2023-03-22T12:51:25;17.80;46.30
66140;DHT22;52945;51.908;8.364;2023-03-22T12:54:26;17.70;45.30
66140;DHT22;52945;51.908;8.364;2023-03-22T12:57:27;17.60;46.20
66140;DHT22;52945;51.908;8.364;2023-03-22T13:00:43;17.50;47.40
66140;DHT22;52945;51.908;8.364;2023-03-22T13:03:50;17.40;47.80
66140;DHT22;52945;51.908;8.364;2023-03-22T13:09:52;17.20;48.90
66140;DHT22;52945;51.908;8.364;2023-03-22T13:19:25;17.10;52.00
66140;DHT22;52945;51.908;8.364;2023-03-22T13:26:00;16.90;52.60
66140;DHT22;52945;51.908;8.364;2023-03-22T13:29:09;16.80;51.90
66140;DHT22;52945;51.908;8.364;2023-03-22T13:32:28;16.80;53.20
66140;DHT22;52945;51.908;8.364;2023-03-22T13:35:50;16.70;53.00
66140;DHT22;52945;51.908;8.364;2023-03-22T13:38:58;16.70;53.20
66140;DHT22;52945;51.908;8.364;2023-03-22T13:42:07;16.80;53.70
66140;DHT22;52945;51.908;8.364;2023-03-22T13:45:31;16.80;53.20
66140;DHT22;52945;51.908;8.364;2023-03-22T13:51:51;16.70;51.60
66140;DHT22;52945;51.908;8.364;2023-03-22T13:54:55;16.80;51.60
66140;DHT22;52945;51.908;8.364;2023-03-22T13:57:58;16.80;50.70
66140;DHT22;52945;51.908;8.364;2023-03-22T14:00:59;16.80;50.70
66140;DHT22;52945;51.908;8.364;2023-03-22T14:04:04;16.80;50.40
66140;DHT22;52945;51.908;8.364;2023-03-22T14:13:37;16.80;49.60
66140;DHT22;52945;51.908;8.364;2023-03-22T14:16:49;16.80;49.50
66140;DHT22;52945;51.908;8.364;2023-03-22T14:19:51;16.80;49.60
66140;DHT22;52945;51.908;8.364;2023-03-22T14:23:01;16.80;49.40
66140;DHT22;52945;51.908;8.364;2023-03-22T14:29:15;16.70;48.40
66140;DHT22;52945;51.908;8.364;2023-03-22T14:32:23;16.60;48.30
66140;DHT22;52945;51.908;8.364;2023-03-22T14:35:34;16.50;47.90
66140;DHT22;52945;51.908;8.364;2023-03-22T14:38:39;16.50;47.90
66140;DHT22;52945;51.908;8.364;2023-03-22T14:42:03;16.50;48.20
66140;DHT22;52945;51.908;8.364;2023-03-22T14:45:18;16.40;48.30
66140;DHT22;52945;51.908;8.364;2023-03-22T14:48:22;16.50;48.40
66140;DHT22;52945;51.908;8.364;2023-03-22T14:51:38;16.50;48.30
66140;DHT22;52945;51.908;8.364;2023-03-22T14:54:39;16.50;48.40
66140;DHT22;52945;51.908;8.364;2023-03-22T14:57:48;16.50;48.30
66140;DHT22;52945;51.908;8.364;2023-03-22T15:00:50;16.50;47.80
66140;DHT22;52945;51.908;8.364;2023-03-22T15:03:53;16.50;47.70
66140;DHT22;52945;51.908;8.364;2023-03-22T15:06:59;16.60;48.00
66140;DHT22;52945;51.908;8.364;2023-03-22T15:10:31;16.50;47.70
66140;DHT22;52945;51.908;8.364;2023-03-22T15:13:34;16.40;47.70
66140;DHT22;52945;51.908;8.364;2023-03-22T15:16:39;16.50;48.10
66140;DHT22;52945;51.908;8.364;2023-03-22T15:19:44;16.50;48.20
66140;DHT22;52945;51.908;8.364;2023-03-22T15:22:50;16.40;48.40
66140;DHT22;52945;51.908;8.364;2023-03-22T15:25:52;16.30;48.90
66140;DHT22;52945;51.908;8.364;2023-03-22T15:29:01;16.20;48.90
66140;DHT22;52945;51.908;8.364;2023-03-22T15:32:14;16.40;49.30
66140;DHT22;52945;51.908;8.364;2023-03-22T15:35:16;16.40;49.20
66140;DHT22;52945;51.908;8.364;2023-03-22T15:38:25;16.40;49.20
66140;DHT22;52945;51.908;8.364;2023-03-22T15:41:34;16.20;49.40
66140;DHT22;52945;51.908;8.364;2023-03-22T15:44:38;16.20;49.40
66140;DHT22;52945;51.908;8.364;2023-03-22T15:48:03;16.20;49.80
66140;DHT22;52945;51.908;8.364;2023-03-22T15:51:04;16.30;50.10
66140;DHT22;52945;51.908;8.364;2023-03-22T15:54:18;16.20;50.20
66140;DHT22;52945;51.908;8.364;2023-03-22T15:57:24;16.20;50.50
66140;DHT22;52945;51.908;8.364;2023-03-22T16:00:38;16.20;50.50
66140;DHT22;52945;51.908;8.364;2023-03-22T16:03:45;16.20;50.80
66140;DHT22;52945;51.908;8.364;2023-03-22T16:06:49;16.10;51.20
66140;DHT22;52945;51.908;8.364;2023-03-22T16:09:50;16.20;51.00
66140;DHT22;52945;51.908;8.364;2023-03-22T16:12:51;16.10;51.30
66140;DHT22;52945;51.908;8.364;2023-03-22T16:15:52;16.10;51.70
66140;DHT22;52945;51.908;8.364;2023-03-22T16:18:54;16.00;51.80
66140;DHT22;52945;51.908;8.364;2023-03-22T16:21:55;16.00;51.70
66140;DHT22;52945;51.908;8.364;2023-03-22T16:24:56;16.00;52.00
66140;DHT22;52945;51.908;8.364;2023-03-22T16:27:58;16.00;52.00
66140;DHT22;52945;51.908;8.364;2023-03-22T16:30:59;16.00;52.00
66140;DHT22;52945;51.908;8.364;2023-03-22T16:33:59;15.90;52.30
66140;DHT22;52945;51.908;8.364;2023-03-22T16:37:04;16.00;52.40
66140;DHT22;52945;51.908;8.364;2023-03-22T16:40:24;16.00;52.40
66140;DHT22;52945;51.908;8.364;2023-03-22T16:43:26;15.90;52.50
66140;DHT22;52945;51.908;8.364;2023-03-22T16:46:26;15.90;52.70
66140;DHT22;52945;51.908;8.364;2023-03-22T16:49:30;16.00;52.70
66140;DHT22;52945;51.908;8.364;2023-03-22T16:52:33;15.90;52.80
66140;DHT22;52945;51.908;8.364;2023-03-22T16:55:34;15.90;53.00
66140;DHT22;52945;51.908;8.364;2023-03-22T16:58:34;16.00;52.90
66140;DHT22;52945;51.908;8.364;2023-03-22T17:01:35;16.00;53.00
66140;DHT22;52945;51.908;8.364;2023-03-22T17:04:35;15.90;53.10
66140;DHT22;52945;51.908;8.364;2023-03-22T17:07:36;16.00;53.00
66140;DHT22;52945;51.908;8.364;2023-03-22T17:10:37;15.90;53.20
66140;DHT22;52945;51.908;8.364;2023-03-22T17:13:37;15.90;53.20
66140;DHT22;52945;51.908;8.364;2023-03-22T17:16:38;15.70;53.30
66140;DHT22;52945;51.908;8.364;2023-03-22T17:19:39;15.70;53.70
66140;DHT22;52945;51.908;8.364;2023-03-22T17:22:39;15.80;53.80
66140;DHT22;52945;51.908;8.364;2023-03-22T17:25:42;15.80;53.70
66140;DHT22;52945;51.908;8.364;2023-03-22T17:28:44;15.70;53.80
66140;DHT22;52945;51.908;8.364;2023-03-22T17:31:44;15.80;53.90
66140;DHT22;52945;51.908;8.364;2023-03-22T17:34:45;15.80;53.90
66140;DHT22;52945;51.908;8.364;2023-03-22T17:37:46;15.70;54.10
66140;DHT22;52945;51.908;8.364;2023-03-22T17:40:47;15.70;54.00
66140;DHT22;52945;51.908;8.364;2023-03-22T17:43:47;15.70;54.10
66140;DHT22;52945;51.908;8.364;2023-03-22T17:46:48;15.80;54.30
66140;DHT22;52945;51.908;8.364;2023-03-22T17:49:49;15.70;54.40
66140;DHT22;52945;51.908;8.364;2023-03-22T17:52:50;15.70;54.40
66140;DHT22;52945;51.908;8.364;2023-03-22T17:55:51;15.80;54.50
66140;DHT22;52945;51.908;8.364;2023-03-22T17:58:52;15.70;54.30
66140;DHT22;52945;51.908;8.364;2023-03-22T18:01:53;15.70;54.50
66140;DHT22;52945;51.908;8.364;2023-03-22T18:04:53;15.70;54.70
66140;DHT22;52945;51.908;8.364;2023-03-22T18:07:54;15.60;54.70
66140;DHT22;52945;51.908;8.364;2023-03-22T18:10:55;15.70;54.70
66140;DHT22;52945;51.908;8.364;2023-03-22T18:13:56;15.60;54.60
66140;DHT22;52945;51.908;8.364;2023-03-22T18:16:57;15.60;54.60
66140;DHT22;52945;51.908;8.364;2023-03-22T18:19:57;15.60;54.70
66140;DHT22;52945;51.908;8.364;2023-03-22T18:22:58;15.60;54.70
66140;DHT22;52945;51.908;8.364;2023-03-22T18:26:00;15.60;54.80
66140;DHT22;52945;51.908;8.364;2023-03-22T18:29:01;15.50;54.80
66140;DHT22;52945;51.908;8.364;2023-03-22T18:32:04;15.50;54.90
66140;DHT22;52945;51.908;8.364;2023-03-22T18:35:05;15.50;54.90
66140;DHT22;52945;51.908;8.364;2023-03-22T18:38:06;15.50;55.20
66140;DHT22;52945;51.908;8.364;2023-03-22T18:41:10;15.40;55.00
66140;DHT22;52945;51.908;8.364;2023-03-22T18:44:15;15.40;55.10
66140;DHT22;52945;51.908;8.364;2023-03-22T18:47:16;15.40;55.10
66140;DHT22;52945;51.908;8.364;2023-03-22T18:50:19;15.40;55.10
66140;DHT22;52945;51.908;8.364;2023-03-22T18:53:19;15.40;55.30
66140;DHT22;52945;51.908;8.364;2023-03-22T18:56:20;15.30;55.20
66140;DHT22;52945;51.908;8.364;2023-03-22T18:59:20;15.30;55.40
66140;DHT22;52945;51.908;8.364;2023-03-22T19:02:21;15.40;55.50
66140;DHT22;52945;51.908;8.364;2023-03-22T19:05:22;15.30;55.60
66140;DHT22;52945;51.908;8.364;2023-03-22T19:08:22;15.30;55.40
66140;DHT22;52945;51.908;8.364;2023-03-22T19:11:23;15.20;55.40
66140;DHT22;52945;51.908;8.364;2023-03-22T19:14:23;15.20;55.30
66140;DHT22;52945;51.908;8.364;2023-03-22T19:17:24;15.20;55.60
66140;DHT22;52945;51.908;8.364;2023-03-22T19:20:25;15.20;55.70
66140;DHT22;52945;51.908;8.364;2023-03-22T19:23:26;15.20;55.70
66140;DHT22;52945;51.908;8.364;2023-03-22T19:26:27;15.20;55.60
66140;DHT22;52945;51.908;8.364;2023-03-22T19:29:28;15.20;55.60
66140;DHT22;52945;51.908;8.364;2023-03-22T19:32:28;15.20;55.70
66140;DHT22;52945;51.908;8.364;2023-03-22T19:35:29;15.20;55.40
66140;DHT22;52945;51.908;8.364;2023-03-22T19:38:30;15.20;55.60
66140;DHT22;52945;51.908;8.364;2023-03-22T19:41:30;15.20;55.70
66140;DHT22;52945;51.908;8.364;2023-03-22T19:44:31;15.20;55.70
66140;DHT22;52945;51.908;8.364;2023-03-22T19:47:32;15.20;55.70
66140;DHT22;52945;51.908;8.364;2023-03-22T19:50:32;15.20;55.60
66140;DHT22;52945;51.908;8.364;2023-03-22T19:53:35;15.10;55.60
66140;DHT22;52945;51.908;8.364;2023-03-22T19:56:38;15.10;55.80
66140;DHT22;52945;51.908;8.364;2023-03-22T19:59:39;15.20;55.80
66140;DHT22;52945;51.908;8.364;2023-03-22T20:02:41;15.20;56.00
66140;DHT22;52945;51.908;8.364;2023-03-22T20:05:42;15.20;55.90
66140;DHT22;52945;51.908;8.364;2023-03-22T20:08:43;15.20;56.10
66140;DHT22;52945;51.908;8.364;2023-03-22T20:11:43;15.20;56.00
66140;DHT22;52945;51.908;8.364;2023-03-22T20:14:44;15.20;56.10
66140;DHT22;52945;51.908;8.364;2023-03-22T20:17:45;15.20;56.50
66140;DHT22;52945;51.908;8.364;2023-03-22T20:20:49;15.20;56.50
66140;DHT22;52945;51.908;8.364;2023-03-22T20:23:51;15.20;56.60
66140;DHT22;52945;51.908;8.364;2023-03-22T20:26:53;15.20;56.40
66140;DHT22;52945;51.908;8.364;2023-03-22T20:29:53;15.20;56.30
66140;DHT22;52945;51.908;8.364;2023-03-22T20:32:54;15.20;56.50
66140;DHT22;52945;51.908;8.364;2023-03-22T20:35:57;15.20;56.30
66140;DHT22;52945;51.908;8.364;2023-03-22T20:38:58;15.20;56.40
66140;DHT22;52945;51.908;8.364;2023-03-22T20:41:59;15.20;56.50
66140;DHT22;52945;51.908;8.364;2023-03-22T20:45:00;15.10;56.50